sensor_id;sensor_type;location;lat;lon;timestamp;pressure;altitude;pressure_sealevel;temperature
15544;BMP180;7873;52.230;12.856;2023-11-21T00:00:39;100063.97;;;28.69
15544;BMP180;7873;52.230;12.856;2023-11-21T00:03:06;100060.88;;;28.65
15544;BMP180;7873;52.230;12.856;2023-11-21T00:05:34;100057.00;;;28.61
15544;BMP180;7873;52.230;12.856;2023-11-21T00:08:00;100061.00;;;28.59
15544;BMP180;7873;52.230;12.856;2023-11-21T00:10:27;100063.56;;;28.54
15544;BMP180;7873;52.230;12.856;2023-11-21T00:12:53;100064.00;;;28.51
15544;BMP180;7873;52.230;12.856;2023-11-21T00:15:20;100059.91;;;28.48
15544;BMP180;7873;52.230;12.856;2023-11-21T00:17:47;100062.22;;;28.45
15544;BMP180;7873;52.230;12.856;2023-11-21T00:20:13;100062.91;;;28.40
15544;BMP180;7873;52.230;12.856;2023-11-21T00:22:41;100062.56;;;28.37
15544;BMP180;7873;52.230;12.856;2023-11-21T00:25:08;100065.94;;;28.32
15544;BMP180;7873;52.230;12.856;2023-11-21T00:27:35;100070.94;;;28.29
15544;BMP180;7873;52.230;12.856;2023-11-21T00:30:02;100064.91;;;28.27
15544;BMP180;7873;52.230;12.856;2023-11-21T00:32:30;100074.34;;;28.24
15544;BMP180;7873;52.230;12.856;2023-11-21T00:34:56;100073.97;;;28.21
15544;BMP180;7873;52.230;12.856;2023-11-21T00:37:22;100076.28;;;28.17
15544;BMP180;7873;52.230;12.856;2023-11-21T00:39:50;100069.66;;;28.13
15544;BMP180;7873;52.230;12.856;2023-11-21T00:42:17;100075.31;;;28.12
15544;BMP180;7873;52.230;12.856;2023-11-21T00:44:43;100079.53;;;28.08
15544;BMP180;7873;52.230;12.856;2023-11-21T00:47:10;100072.31;;;28.02
15544;BMP180;7873;52.230;12.856;2023-11-21T00:49:36;100073.59;;;27.99
15544;BMP180;7873;52.230;12.856;2023-11-21T00:52:05;100078.41;;;27.97
15544;BMP180;7873;52.230;12.856;2023-11-21T00:54:31;100075.06;;;27.95
15544;BMP180;7873;52.230;12.856;2023-11-21T00:57:00;100077.41;;;27.92
15544;BMP180;7873;52.230;12.856;2023-11-21T00:59:26;100082.44;;;27.88
15544;BMP180;7873;52.230;12.856;2023-11-21T01:01:53;100078.09;;;27.87
15544;BMP180;7873;52.230;12.856;2023-11-21T01:04:19;100079.38;;;27.85
15544;BMP180;7873;52.230;12.856;2023-11-21T01:06:46;100084.16;;;27.83
15544;BMP180;7873;52.230;12.856;2023-11-21T01:09:12;100090.03;;;27.80
15544;BMP180;7873;52.230;12.856;2023-11-21T01:11:39;100092.97;;;27.78
15544;BMP180;7873;52.230;12.856;2023-11-21T01:14:07;100093.19;;;27.77
15544;BMP180;7873;52.230;12.856;2023-11-21T01:16:34;100094.88;;;27.71
15544;BMP180;7873;52.230;12.856;2023-11-21T01:19:01;100089.69;;;27.70
15544;BMP180;7873;52.230;12.856;2023-11-21T01:21:27;100096.16;;;27.69
15544;BMP180;7873;52.230;12.856;2023-11-21T01:23:54;100102.00;;;27.66
15544;BMP180;7873;52.230;12.856;2023-11-21T01:26:21;100100.78;;;27.62
15544;BMP180;7873;52.230;12.856;2023-11-21T01:28:47;100105.56;;;27.60
15544;BMP180;7873;52.230;12.856;2023-11-21T01:31:15;100106.25;;;27.55
15544;BMP180;7873;52.230;12.856;2023-11-21T01:33:42;100102.09;;;27.53
15544;BMP180;7873;52.230;12.856;2023-11-21T01:36:09;100102.75;;;27.48
15544;BMP180;7873;52.230;12.856;2023-11-21T01:38:36;100103.22;;;27.45
15544;BMP180;7873;52.230;12.856;2023-11-21T01:41:03;100111.56;;;27.44
15544;BMP180;7873;52.230;12.856;2023-11-21T01:43:30;100107.41;;;27.41
15544;BMP180;7873;52.230;12.856;2023-11-21T01:45:56;100109.94;;;27.37
15544;BMP180;7873;52.230;12.856;2023-11-21T01:48:24;100110.16;;;27.35
15544;BMP180;7873;52.230;12.856;2023-11-21T01:50:51;100114.16;;;27.33
15544;BMP180;7873;52.230;12.856;2023-11-21T01:53:18;100119.75;;;27.31
15544;BMP180;7873;52.230;12.856;2023-11-21T01:55:46;100126.44;;;27.29
15544;BMP180;7873;52.230;12.856;2023-11-21T01:58:12;100124.16;;;27.26
15544;BMP180;7873;52.230;12.856;2023-11-21T02:00:39;100120.25;;;27.22
15544;BMP180;7873;52.230;12.856;2023-11-21T02:03:05;100126.09;;;27.19
15544;BMP180;7873;52.230;12.856;2023-11-21T02:05:34;100126.94;;;27.19
15544;BMP180;7873;52.230;12.856;2023-11-21T02:08:01;100130.06;;;27.16
15544;BMP180;7873;52.230;12.856;2023-11-21T02:10:28;100129.44;;;27.14
15544;BMP180;7873;52.230;12.856;2023-11-21T02:12:56;100136.94;;;27.12
15544;BMP180;7873;52.230;12.856;2023-11-21T02:15:24;100136.53;;;27.09
15544;BMP180;7873;52.230;12.856;2023-11-21T02:17:54;100147.56;;;27.07
15544;BMP180;7873;52.230;12.856;2023-11-21T02:20:21;100143.44;;;27.05
15544;BMP180;7873;52.230;12.856;2023-11-21T02:22:51;100147.38;;;27.02
15544;BMP180;7873;52.230;12.856;2023-11-21T02:25:21;100157.34;;;27.02
15544;BMP180;7873;52.230;12.856;2023-11-21T02:27:48;100158.63;;;26.99
15544;BMP180;7873;52.230;12.856;2023-11-21T02:30:14;100149.31;;;26.95
15544;BMP180;7873;52.230;12.856;2023-11-21T02:32:41;100159.25;;;26.95
15544;BMP180;7873;52.230;12.856;2023-11-21T02:35:08;100163.84;;;26.94
15544;BMP180;7873;52.230;12.856;2023-11-21T02:37:35;100162.19;;;26.93
15544;BMP180;7873;52.230;12.856;2023-11-21T02:40:03;100166.97;;;26.91
15544;BMP180;7873;52.230;12.856;2023-11-21T02:42:31;100168.25;;;26.89
15544;BMP180;7873;52.230;12.856;2023-11-21T02:44:58;100170.53;;;26.85
15544;BMP180;7873;52.230;12.856;2023-11-21T02:47:24;100171.81;;;26.83
15544;BMP180;7873;52.230;12.856;2023-11-21T02:49:51;100170.16;;;26.82
15544;BMP180;7873;52.230;12.856;2023-11-21T02:52:17;100172.66;;;26.77
15544;BMP180;7873;52.230;12.856;2023-11-21T02:54:44;100178.03;;;26.77
15544;BMP180;7873;52.230;12.856;2023-11-21T02:57:12;100178.47;;;26.74
15544;BMP180;7873;52.230;12.856;2023-11-21T02:59:38;100172.47;;;26.72
15544;BMP180;7873;52.230;12.856;2023-11-21T03:02:05;100173.50;;;26.71
15544;BMP180;7873;52.230;12.856;2023-11-21T03:04:33;100174.75;;;26.68
15544;BMP180;7873;52.230;12.856;2023-11-21T03:07:00;100177.69;;;26.67
15544;BMP180;7873;52.230;12.856;2023-11-21T03:09:27;100184.13;;;26.66
15544;BMP180;7873;52.230;12.856;2023-11-21T03:11:53;100181.63;;;26.64
15544;BMP180;7873;52.230;12.856;2023-11-21T03:14:21;100180.22;;;26.62
15544;BMP180;7873;52.230;12.856;2023-11-21T03:16:48;100182.06;;;26.61
15544;BMP180;7873;52.230;12.856;2023-11-21T03:19:14;100195.78;;;26.60
15544;BMP180;7873;52.230;12.856;2023-11-21T03:21:41;100203.06;;;26.59
15544;BMP180;7873;52.230;12.856;2023-11-21T03:24:08;100201.59;;;26.57
15544;BMP180;7873;52.230;12.856;2023-11-21T03:26:34;100208.28;;;26.54
15544;BMP180;7873;52.230;12.856;2023-11-21T03:29:02;100212.22;;;26.52
15544;BMP180;7873;52.230;12.856;2023-11-21T03:31:31;100226.75;;;26.51
15544;BMP180;7873;52.230;12.856;2023-11-21T03:33:57;100229.69;;;26.49
15544;BMP180;7873;52.230;12.856;2023-11-21T03:36:24;100228.03;;;26.48
15544;BMP180;7873;52.230;12.856;2023-11-21T03:38:51;100233.59;;;26.47
15544;BMP180;7873;52.230;12.856;2023-11-21T03:41:17;100232.97;;;26.45
15544;BMP180;7873;52.230;12.856;2023-11-21T03:43:44;100239.63;;;26.42
15544;BMP180;7873;52.230;12.856;2023-11-21T03:46:10;100244.41;;;26.40
15544;BMP180;7873;52.230;12.856;2023-11-21T03:48:38;100238.81;;;26.42
15544;BMP180;7873;52.230;12.856;2023-11-21T03:51:05;100235.88;;;26.43
15544;BMP180;7873;52.230;12.856;2023-11-21T03:53:32;100240.88;;;26.46
15544;BMP180;7873;52.230;12.856;2023-11-21T03:55:58;100257.72;;;26.48
15544;BMP180;7873;52.230;12.856;2023-11-21T03:58:26;100255.22;;;26.53
15544;BMP180;7873;52.230;12.856;2023-11-21T04:00:53;100256.66;;;26.56
15544;BMP180;7873;52.230;12.856;2023-11-21T04:03:19;100255.22;;;26.60
15544;BMP180;7873;52.230;12.856;2023-11-21T04:05:47;100265.59;;;26.63
15544;BMP180;7873;52.230;12.856;2023-11-21T04:08:13;100264.31;;;26.65
15544;BMP180;7873;52.230;12.856;2023-11-21T04:10:40;100265.16;;;26.66
15544;BMP180;7873;52.230;12.856;2023-11-21T04:13:07;100269.53;;;26.67
15544;BMP180;7873;52.230;12.856;2023-11-21T04:15:34;100274.69;;;26.68
15544;BMP180;7873;52.230;12.856;2023-11-21T04:18:00;100280.31;;;26.67
15544;BMP180;7873;52.230;12.856;2023-11-21T04:20:27;100279.28;;;26.68
15544;BMP180;7873;52.230;12.856;2023-11-21T04:22:54;100290.91;;;26.68
15544;BMP180;7873;52.230;12.856;2023-11-21T04:25:21;100291.94;;;26.67
15544;BMP180;7873;52.230;12.856;2023-11-21T04:27:48;100296.09;;;26.70
15544;BMP180;7873;52.230;12.856;2023-11-21T04:30:15;100298.81;;;26.63
15544;BMP180;7873;52.230;12.856;2023-11-21T04:32:42;100308.38;;;26.59
15544;BMP180;7873;52.230;12.856;2023-11-21T04:35:09;100309.84;;;26.49
15544;BMP180;7873;52.230;12.856;2023-11-21T04:37:35;100315.88;;;26.51
15544;BMP180;7873;52.230;12.856;2023-11-21T04:40:04;100321.47;;;26.43
15544;BMP180;7873;52.230;12.856;2023-11-21T04:42:34;100321.25;;;26.31
15544;BMP180;7873;52.230;12.856;2023-11-21T04:45:01;100318.75;;;26.10
15544;BMP180;7873;52.230;12.856;2023-11-21T04:47:30;100325.59;;;25.93
15544;BMP180;7873;52.230;12.856;2023-11-21T04:49:56;100324.13;;;25.84
15544;BMP180;7873;52.230;12.856;2023-11-21T04:52:23;100321.84;;;25.94
15544;BMP180;7873;52.230;12.856;2023-11-21T04:54:49;100328.09;;;26.01
15544;BMP180;7873;52.230;12.856;2023-11-21T04:57:18;100334.09;;;26.10
15544;BMP180;7873;52.230;12.856;2023-11-21T04:59:44;100339.13;;;26.13
15544;BMP180;7873;52.230;12.856;2023-11-21T05:02:11;100344.72;;;26.18
15544;BMP180;7873;52.230;12.856;2023-11-21T05:04:37;100350.50;;;26.21
15544;BMP180;7873;52.230;12.856;2023-11-21T05:07:04;100351.56;;;26.20
15544;BMP180;7873;52.230;12.856;2023-11-21T05:09:30;100359.66;;;26.20
15544;BMP180;7873;52.230;12.856;2023-11-21T05:14:26;100357.81;;;26.21
15544;BMP180;7873;52.230;12.856;2023-11-21T05:16:52;100361.75;;;26.25
15544;BMP180;7873;52.230;12.856;2023-11-21T05:19:18;100359.88;;;26.25
15544;BMP180;7873;52.230;12.856;2023-11-21T05:21:46;100366.31;;;26.24
15544;BMP180;7873;52.230;12.856;2023-11-21T05:24:12;100371.31;;;26.27
15544;BMP180;7873;52.230;12.856;2023-11-21T05:26:39;100376.09;;;26.25
15544;BMP180;7873;52.230;12.856;2023-11-21T05:29:06;100377.31;;;26.23
15544;BMP180;7873;52.230;12.856;2023-11-21T05:31:34;100377.94;;;26.25
15544;BMP180;7873;52.230;12.856;2023-11-21T05:34:00;100377.09;;;26.18
15544;BMP180;7873;52.230;12.856;2023-11-21T05:36:27;100385.06;;;25.79
15544;BMP180;7873;52.230;12.856;2023-11-21T05:38:53;100385.25;;;25.18
15544;BMP180;7873;52.230;12.856;2023-11-21T05:41:20;100388.19;;;24.47
15544;BMP180;7873;52.230;12.856;2023-11-21T05:43:46;100390.91;;;24.05
15544;BMP180;7873;52.230;12.856;2023-11-21T05:46:13;100402.34;;;23.43
15544;BMP180;7873;52.230;12.856;2023-11-21T05:48:41;100408.38;;;22.87
15544;BMP180;7873;52.230;12.856;2023-11-21T05:51:07;100407.97;;;22.38
15544;BMP180;7873;52.230;12.856;2023-11-21T05:53:34;100403.13;;;22.56
15544;BMP180;7873;52.230;12.856;2023-11-21T05:56:01;100406.59;;;22.94
15544;BMP180;7873;52.230;12.856;2023-11-21T05:58:29;100405.44;;;23.25
15544;BMP180;7873;52.230;12.856;2023-11-21T06:00:55;100422.28;;;23.48
15544;BMP180;7873;52.230;12.856;2023-11-21T06:03:22;100419.19;;;23.66
15544;BMP180;7873;52.230;12.856;2023-11-21T06:05:50;100429.25;;;23.78
15544;BMP180;7873;52.230;12.856;2023-11-21T06:08:17;100430.84;;;23.87
15544;BMP180;7873;52.230;12.856;2023-11-21T06:10:44;100428.22;;;23.93
15544;BMP180;7873;52.230;12.856;2023-11-21T06:13:10;100436.75;;;23.97
15544;BMP180;7873;52.230;12.856;2023-11-21T06:15:37;100439.72;;;24.02
15544;BMP180;7873;52.230;12.856;2023-11-21T06:18:03;100449.28;;;24.04
15544;BMP180;7873;52.230;12.856;2023-11-21T06:20:32;100447.00;;;24.08
15544;BMP180;7873;52.230;12.856;2023-11-21T06:22:59;100452.00;;;24.11
15544;BMP180;7873;52.230;12.856;2023-11-21T06:25:29;100460.94;;;24.11
15544;BMP180;7873;52.230;12.856;2023-11-21T06:27:58;100460.53;;;24.14
15544;BMP180;7873;52.230;12.856;2023-11-21T06:30:24;100470.91;;;24.17
15544;BMP180;7873;52.230;12.856;2023-11-21T06:32:51;100465.34;;;24.19
15544;BMP180;7873;52.230;12.856;2023-11-21T06:35:18;100476.75;;;24.21
15544;BMP180;7873;52.230;12.856;2023-11-21T06:37:45;100477.41;;;24.23
15544;BMP180;7873;52.230;12.856;2023-11-21T06:40:14;100484.44;;;24.24
15544;BMP180;7873;52.230;12.856;2023-11-21T06:42:41;100486.13;;;24.25
15544;BMP180;7873;52.230;12.856;2023-11-21T06:45:09;100487.94;;;24.24
15544;BMP180;7873;52.230;12.856;2023-11-21T06:47:36;100488.16;;;24.23
15544;BMP180;7873;52.230;12.856;2023-11-21T06:50:04;100493.53;;;24.23
15544;BMP180;7873;52.230;12.856;2023-11-21T06:52:30;100495.22;;;24.24
15544;BMP180;7873;52.230;12.856;2023-11-21T06:54:57;100504.78;;;24.26
15544;BMP180;7873;52.230;12.856;2023-11-21T06:57:24;100494.19;;;24.25
15544;BMP180;7873;52.230;12.856;2023-11-21T06:59:51;100496.69;;;24.26
15544;BMP180;7873;52.230;12.856;2023-11-21T07:02:17;100505.41;;;24.28
15544;BMP180;7873;52.230;12.856;2023-11-21T07:04:44;100503.38;;;24.30
15544;BMP180;7873;52.230;12.856;2023-11-21T07:07:11;100518.47;;;24.31
15544;BMP180;7873;52.230;12.856;2023-11-21T07:09:38;100508.09;;;24.28
15544;BMP180;7873;52.230;12.856;2023-11-21T07:12:05;100507.91;;;24.30
15544;BMP180;7873;52.230;12.856;2023-11-21T07:14:34;100508.09;;;24.28
15544;BMP180;7873;52.230;12.856;2023-11-21T07:17:00;100512.63;;;24.28
15544;BMP180;7873;52.230;12.856;2023-11-21T07:19:27;100517.38;;;24.26
15544;BMP180;7873;52.230;12.856;2023-11-21T07:21:54;100517.56;;;24.24
15544;BMP180;7873;52.230;12.856;2023-11-21T07:24:21;100518.22;;;24.26
15544;BMP180;7873;52.230;12.856;2023-11-21T07:26:48;100517.56;;;24.24
15544;BMP180;7873;52.230;12.856;2023-11-21T07:29:15;100522.59;;;24.27
15544;BMP180;7873;52.230;12.856;2023-11-21T07:31:42;100527.97;;;24.27
15544;BMP180;7873;52.230;12.856;2023-11-21T07:34:09;100535.75;;;24.22
15544;BMP180;7873;52.230;12.856;2023-11-21T07:36:37;100544.03;;;24.21
15544;BMP180;7873;52.230;12.856;2023-11-21T07:39:04;100544.19;;;24.19
15544;BMP180;7873;52.230;12.856;2023-11-21T07:41:32;100545.22;;;24.18
15544;BMP180;7873;52.230;12.856;2023-11-21T07:43:58;100548.94;;;24.17
15544;BMP180;7873;52.230;12.856;2023-11-21T07:46:25;100553.28;;;24.18
15544;BMP180;7873;52.230;12.856;2023-11-21T07:48:54;100549.97;;;24.16
15544;BMP180;7873;52.230;12.856;2023-11-21T07:51:20;100556.19;;;24.17
15544;BMP180;7873;52.230;12.856;2023-11-21T07:53:47;100563.03;;;24.19
15544;BMP180;7873;52.230;12.856;2023-11-21T07:56:13;100558.03;;;24.16
15544;BMP180;7873;52.230;12.856;2023-11-21T07:58:40;100561.75;;;24.15
15544;BMP180;7873;52.230;12.856;2023-11-21T08:01:06;100553.88;;;24.14
15544;BMP180;7873;52.230;12.856;2023-11-21T08:03:33;100561.75;;;24.15
15544;BMP180;7873;52.230;12.856;2023-11-21T08:06:01;100562.94;;;24.13
15544;BMP180;7873;52.230;12.856;2023-11-21T08:08:29;100567.34;;;24.14
15544;BMP180;7873;52.230;12.856;2023-11-21T08:10:55;100569.19;;;24.13
15544;BMP180;7873;52.230;12.856;2023-11-21T08:13:22;100575.41;;;24.14
15544;BMP180;7873;52.230;12.856;2023-11-21T08:15:49;100574.56;;;24.13
15544;BMP180;7873;52.230;12.856;2023-11-21T08:18:15;100586.34;;;24.12
15544;BMP180;7873;52.230;12.856;2023-11-21T08:20:43;100590.22;;;24.10
15544;BMP180;7873;52.230;12.856;2023-11-21T08:23:14;100594.78;;;24.09
15544;BMP180;7873;52.230;12.856;2023-11-21T08:25:42;100599.31;;;24.09
15544;BMP180;7873;52.230;12.856;2023-11-21T08:28:09;100598.31;;;24.10
15544;BMP180;7873;52.230;12.856;2023-11-21T08:30:35;100600.34;;;24.08
15544;BMP180;7873;52.230;12.856;2023-11-21T08:33:02;100602.38;;;24.06
15544;BMP180;7873;52.230;12.856;2023-11-21T08:35:29;100597.88;;;24.06
15544;BMP180;7873;52.230;12.856;2023-11-21T08:37:55;100601.38;;;24.07
15544;BMP180;7873;52.230;12.856;2023-11-21T08:40:23;100605.72;;;24.08
15544;BMP180;7873;52.230;12.856;2023-11-21T08:42:50;100605.09;;;24.06
15544;BMP180;7873;52.230;12.856;2023-11-21T08:45:18;100610.84;;;24.03
15544;BMP180;7873;52.230;12.856;2023-11-21T08:47:45;100608.63;;;24.06
15544;BMP180;7873;52.230;12.856;2023-11-21T08:50:12;100619.56;;;24.05
15544;BMP180;7873;52.230;12.856;2023-11-21T08:52:39;100623.47;;;24.02
15544;BMP180;7873;52.230;12.856;2023-11-21T08:55:06;100628.16;;;24.00
15544;BMP180;7873;52.230;12.856;2023-11-21T08:57:35;100624.84;;;23.98
15544;BMP180;7873;52.230;12.856;2023-11-21T09:00:02;100626.50;;;23.99
15544;BMP180;7873;52.230;12.856;2023-11-21T09:02:30;100621.34;;;23.98
15544;BMP180;7873;52.230;12.856;2023-11-21T09:04:57;100620.69;;;23.96
15544;BMP180;7873;52.230;12.856;2023-11-21T09:07:24;100635.31;;;23.93
15544;BMP180;7873;52.230;12.856;2023-11-21T09:09:51;100639.69;;;23.94
15544;BMP180;7873;52.230;12.856;2023-11-21T09:12:17;100638.00;;;23.93
15544;BMP180;7873;52.230;12.856;2023-11-21T09:14:46;100651.19;;;23.88
15544;BMP180;7873;52.230;12.856;2023-11-21T09:17:12;100653.22;;;23.86
15544;BMP180;7873;52.230;12.856;2023-11-21T09:19:40;100657.97;;;23.84
15544;BMP180;7873;52.230;12.856;2023-11-21T09:22:06;100657.97;;;23.84
15544;BMP180;7873;52.230;12.856;2023-11-21T09:24:34;100665.00;;;23.85
15544;BMP180;7873;52.230;12.856;2023-11-21T09:27:00;100665.81;;;23.86
15544;BMP180;7873;52.230;12.856;2023-11-21T09:29:27;100665.19;;;23.84
15544;BMP180;7873;52.230;12.856;2023-11-21T09:31:55;100669.72;;;23.83
15544;BMP180;7873;52.230;12.856;2023-11-21T09:34:24;100671.09;;;23.79
15544;BMP180;7873;52.230;12.856;2023-11-21T09:36:51;100674.59;;;23.80
15544;BMP180;7873;52.230;12.856;2023-11-21T09:39:17;100687.72;;;23.83
15544;BMP180;7873;52.230;12.856;2023-11-21T09:41:49;100683.84;;;23.77
15544;BMP180;7873;52.230;12.856;2023-11-21T09:44:18;100683.03;;;23.77
15544;BMP180;7873;52.230;12.856;2023-11-21T09:46:47;100684.06;;;23.76
15544;BMP180;7873;52.230;12.856;2023-11-21T09:49:18;100685.25;;;23.73
15544;BMP180;7873;52.230;12.856;2023-11-21T09:51:50;100689.81;;;23.73
15544;BMP180;7873;52.230;12.856;2023-11-21T09:54:18;100694.97;;;23.74
15544;BMP180;7873;52.230;12.856;2023-11-21T09:56:46;100688.13;;;23.72
15544;BMP180;7873;52.230;12.856;2023-11-21T09:59:14;100706.97;;;23.72
15544;BMP180;7873;52.230;12.856;2023-11-21T10:01:42;100699.25;;;23.69
15544;BMP180;7873;52.230;12.856;2023-11-21T10:04:09;100698.25;;;23.70
15544;BMP180;7873;52.230;12.856;2023-11-21T10:06:39;100698.88;;;23.72
15544;BMP180;7873;52.230;12.856;2023-11-21T10:09:08;100706.69;;;23.67
15544;BMP180;7873;52.230;12.856;2023-11-21T10:11:39;100700.63;;;23.65
15544;BMP180;7873;52.230;12.856;2023-11-21T10:14:08;100697.94;;;23.65
15544;BMP180;7873;52.230;12.856;2023-11-21T10:16:38;100700.81;;;23.64
15544;BMP180;7873;52.230;12.856;2023-11-21T10:19:05;100699.97;;;23.63
15544;BMP180;7873;52.230;12.856;2023-11-21T10:21:32;100703.22;;;23.59
15544;BMP180;7873;52.230;12.856;2023-11-21T10:24:00;100705.59;;;23.54
15544;BMP180;7873;52.230;12.856;2023-11-21T10:26:29;100702.06;;;23.53
15544;BMP180;7873;52.230;12.856;2023-11-21T10:28:57;100696.50;;;23.55
15544;BMP180;7873;52.230;12.856;2023-11-21T10:31:24;100710.97;;;23.54
15544;BMP180;7873;52.230;12.856;2023-11-21T10:33:53;100716.34;;;23.54
15544;BMP180;7873;52.230;12.856;2023-11-21T10:36:26;100714.50;;;23.54
15544;BMP180;7873;52.230;12.856;2023-11-21T10:38:53;100715.03;;;23.50
15544;BMP180;7873;52.230;12.856;2023-11-21T10:41:21;100712.19;;;23.51
15544;BMP180;7873;52.230;12.856;2023-11-21T10:43:47;100719.41;;;23.51
15544;BMP180;7873;52.230;12.856;2023-11-21T10:46:14;100726.28;;;23.53
15544;BMP180;7873;52.230;12.856;2023-11-21T10:48:41;100723.38;;;23.55
15544;BMP180;7873;52.230;12.856;2023-11-21T10:51:09;100727.09;;;23.54
15544;BMP180;7873;52.230;12.856;2023-11-21T10:53:38;100725.97;;;23.48
15544;BMP180;7873;52.230;12.856;2023-11-21T10:56:06;100728.34;;;23.43
15544;BMP180;7873;52.230;12.856;2023-11-21T10:58:37;100727.69;;;23.41
15544;BMP180;7873;52.230;12.856;2023-11-21T11:01:06;100740.47;;;23.39
15544;BMP180;7873;52.230;12.856;2023-11-21T11:03:36;100744.00;;;23.40
15544;BMP180;7873;52.230;12.856;2023-11-21T11:06:03;100733.78;;;23.35
15544;BMP180;7873;52.230;12.856;2023-11-21T11:08:34;100735.00;;;23.33
15544;BMP180;7873;52.230;12.856;2023-11-21T11:11:01;100737.69;;;23.33
15544;BMP180;7873;52.230;12.856;2023-11-21T11:13:28;100743.59;;;23.28
15544;BMP180;7873;52.230;12.856;2023-11-21T11:15:59;100750.63;;;23.29
15544;BMP180;7873;52.230;12.856;2023-11-21T11:18:27;100743.59;;;23.28
15544;BMP180;7873;52.230;12.856;2023-11-21T11:20:54;100750.44;;;23.31
15544;BMP180;7873;52.230;12.856;2023-11-21T11:23:32;100746.09;;;23.30
15544;BMP180;7873;52.230;12.856;2023-11-21T11:26:12;100752.66;;;23.27
15544;BMP180;7873;52.230;12.856;2023-11-21T11:28:47;100759.06;;;23.26
15544;BMP180;7873;52.230;12.856;2023-11-21T11:31:27;100765.44;;;23.25
15544;BMP180;7873;52.230;12.856;2023-11-21T11:34:08;100763.94;;;23.23
15544;BMP180;7873;52.230;12.856;2023-11-21T11:36:45;100771.19;;;23.22
15544;BMP180;7873;52.230;12.856;2023-11-21T11:39:30;100778.69;;;23.27
15544;BMP180;7873;52.230;12.856;2023-11-21T11:41:57;100780.91;;;23.23
15544;BMP180;7873;52.230;12.856;2023-11-21T11:44:46;100777.91;;;23.18
15544;BMP180;7873;52.230;12.856;2023-11-21T11:47:20;100785.13;;;23.18
15544;BMP180;7873;52.230;12.856;2023-11-21T11:50:00;100787.47;;;23.21
15544;BMP180;7873;52.230;12.856;2023-11-21T11:52:40;100790.66;;;23.16
15544;BMP180;7873;52.230;12.856;2023-11-21T11:55:08;100784.13;;;23.19
15544;BMP180;7873;52.230;12.856;2023-11-21T11:57:39;100789.84;;;23.16
15544;BMP180;7873;52.230;12.856;2023-11-21T12:00:16;100794.72;;;23.12
15544;BMP180;7873;52.230;12.856;2023-11-21T12:02:47;100794.56;;;23.14
15544;BMP180;7873;52.230;12.856;2023-11-21T12:05:16;100805.66;;;23.11
15544;BMP180;7873;52.230;12.856;2023-11-21T12:07:48;100812.00;;;23.10
15544;BMP180;7873;52.230;12.856;2023-11-21T12:10:16;100815.41;;;23.12
15544;BMP180;7873;52.230;12.856;2023-11-21T12:12:47;100819.22;;;23.09
15544;BMP180;7873;52.230;12.856;2023-11-21T12:15:15;100821.91;;;23.09
15544;BMP180;7873;52.230;12.856;2023-11-21T12:17:42;100826.78;;;23.06
15544;BMP180;7873;52.230;12.856;2023-11-21T12:20:13;100829.81;;;23.03
15544;BMP180;7873;52.230;12.856;2023-11-21T12:22:45;100827.78;;;23.05
15544;BMP180;7873;52.230;12.856;2023-11-21T12:25:14;100834.84;;;23.06
15544;BMP180;7873;52.230;12.856;2023-11-21T12:27:42;100849.31;;;23.13
15544;BMP180;7873;52.230;12.856;2023-11-21T12:30:11;100851.31;;;23.11
15544;BMP180;7873;52.230;12.856;2023-11-21T12:32:40;100857.53;;;23.11
15544;BMP180;7873;52.230;12.856;2023-11-21T12:35:08;100852.00;;;23.13
15544;BMP180;7873;52.230;12.856;2023-11-21T12:37:37;100853.00;;;23.12
15544;BMP180;7873;52.230;12.856;2023-11-21T12:40:05;100855.50;;;23.13
15544;BMP180;7873;52.230;12.856;2023-11-21T12:42:33;100859.84;;;23.14
15544;BMP180;7873;52.230;12.856;2023-11-21T12:45:18;100850.78;;;23.15
15544;BMP180;7873;52.230;12.856;2023-11-21T12:47:46;100857.00;;;23.16
15544;BMP180;7873;52.230;12.856;2023-11-21T12:50:13;100862.38;;;23.16
15544;BMP180;7873;52.230;12.856;2023-11-21T12:52:45;100856.34;;;23.14
15544;BMP180;7873;52.230;12.856;2023-11-21T12:55:15;100863.56;;;23.13
15544;BMP180;7873;52.230;12.856;2023-11-21T12:57:43;100873.28;;;23.14
15544;BMP180;7873;52.230;12.856;2023-11-21T13:00:10;100869.78;;;23.14
15544;BMP180;7873;52.230;12.856;2023-11-21T13:02:51;100870.41;;;23.08
15544;BMP180;7873;52.230;12.856;2023-11-21T13:05:23;100874.47;;;23.04
15544;BMP180;7873;52.230;12.856;2023-11-21T13:07:51;100886.72;;;23.06
15544;BMP180;7873;52.230;12.856;2023-11-21T13:10:21;100883.84;;;23.08
15544;BMP180;7873;52.230;12.856;2023-11-21T13:12:51;100889.22;;;23.08
15544;BMP180;7873;52.230;12.856;2023-11-21T13:15:18;100889.41;;;23.06
15544;BMP180;7873;52.230;12.856;2023-11-21T13:17:44;100889.78;;;23.03
15544;BMP180;7873;52.230;12.856;2023-11-21T13:20:11;100884.25;;;22.97
15544;BMP180;7873;52.230;12.856;2023-11-21T13:22:46;100892.97;;;22.99
15544;BMP180;7873;52.230;12.856;2023-11-21T13:25:15;100898.53;;;22.97
15544;BMP180;7873;52.230;12.856;2023-11-21T13:27:43;100898.69;;;22.96
15544;BMP180;7873;52.230;12.856;2023-11-21T13:30:12;100900.03;;;22.92
15544;BMP180;7873;52.230;12.856;2023-11-21T13:32:41;100912.63;;;22.91
15544;BMP180;7873;52.230;12.856;2023-11-21T13:35:08;100911.13;;;22.89
15544;BMP180;7873;52.230;12.856;2023-11-21T13:37:40;100916.84;;;22.86
15544;BMP180;7873;52.230;12.856;2023-11-21T13:40:08;100912.47;;;22.85
15544;BMP180;7873;52.230;12.856;2023-11-21T13:42:42;100919.69;;;22.84
15544;BMP180;7873;52.230;12.856;2023-11-21T13:45:09;100916.66;;;22.87
15544;BMP180;7873;52.230;12.856;2023-11-21T13:47:35;100929.91;;;22.81
15544;BMP180;7873;52.230;12.856;2023-11-21T13:50:04;100941.69;;;22.80
15544;BMP180;7873;52.230;12.856;2023-11-21T13:52:42;100933.28;;;22.83
15544;BMP180;7873;52.230;12.856;2023-11-21T13:55:10;100932.09;;;22.85
15544;BMP180;7873;52.230;12.856;2023-11-21T13:57:42;100934.94;;;22.84
15544;BMP180;7873;52.230;12.856;2023-11-21T14:00:11;100943.16;;;22.90
15544;BMP180;7873;52.230;12.856;2023-11-21T14:02:58;100958.97;;;22.85